Time;durP1;ratioP1;P1;durP2;ratioP2;P2;SDS_P1;SDS_P2;PMS_P1;PMS_P2;Temp;Humidity;BMP_temperature;BMP_pressure;BME280_temperature;BME280_humidity;BME280_pressure;Samples;Min_cycle;Max_cycle;Signal;HPM_P1;HPM_P2
2021/01/08 00:01:57;;;;;;;20.17;10.93;;;2.20;99.90;;;;;;5030671;28;20238;-62
2021/01/08 00:04:24;;;;;;;21.27;12.03;;;2.20;99.90;;;;;;5024344;28;20651;-62
2021/01/08 00:06:55;;;;;;;24.77;12.63;;;2.30;99.90;;;;;;5025136;28;20249;-60
2021/01/08 00:09:21;;;;;;;20.70;11.03;;;2.30;99.90;;;;;;5028589;28;20214;-60
2021/01/08 00:11:53;;;;;;;21.37;11.37;;;2.30;99.90;;;;;;5031848;28;20207;-61
2021/01/08 00:14:19;;;;;;;21.53;12.03;;;2.30;99.90;;;;;;5030359;28;20763;-60
2021/01/08 00:16:46;;;;;;;21.50;11.20;;;2.30;99.90;;;;;;5028078;28;20590;-60
2021/01/08 00:19:13;;;;;;;21.80;11.87;;;2.30;99.90;;;;;;5029723;28;20223;-57
2021/01/08 00:21:42;;;;;;;22.30;11.87;;;2.30;99.90;;;;;;5029564;28;20206;-60
2021/01/08 00:24:09;;;;;;;21.50;11.93;;;2.30;99.90;;;;;;5029545;28;20203;-60
2021/01/08 00:26:36;;;;;;;21.20;11.57;;;2.40;99.90;;;;;;5027468;28;20207;-57
2021/01/08 00:29:02;;;;;;;22.57;11.67;;;2.30;99.90;;;;;;5029688;28;20662;-60
2021/01/08 00:31:35;;;;;;;20.67;11.67;;;2.30;99.90;;;;;;5030135;28;20238;-59
2021/01/08 00:34:01;;;;;;;21.23;11.87;;;2.30;99.90;;;;;;5028138;28;20306;-60
2021/01/08 00:36:28;;;;;;;19.57;10.57;;;2.30;99.90;;;;;;5029567;28;20222;-61
2021/01/08 00:38:55;;;;;;;21.60;11.57;;;2.30;99.90;;;;;;5029908;28;20207;-59
2021/01/08 00:41:27;;;;;;;19.70;11.13;;;2.30;99.90;;;;;;5029765;28;20273;-59
2021/01/08 00:43:54;;;;;;;22.17;11.93;;;2.40;99.90;;;;;;5030169;28;20204;-58
2021/01/08 00:46:20;;;;;;;22.17;11.93;;;2.40;99.90;;;;;;5029384;28;20200;-60
2021/01/08 00:48:47;;;;;;;20.67;11.17;;;2.40;99.90;;;;;;5029399;28;20199;-59
2021/01/08 00:51:13;;;;;;;20.70;11.23;;;2.40;99.90;;;;;;5028397;28;20235;-61
2021/01/08 00:53:41;;;;;;;19.93;10.37;;;2.30;99.90;;;;;;5029252;28;20230;-60
2021/01/08 00:56:16;;;;;;;19.43;10.43;;;2.30;99.90;;;;;;5028967;28;20235;-61
2021/01/08 00:58:42;;;;;;;19.63;10.60;;;2.30;99.90;;;;;;5024654;28;20199;-59
2021/01/08 01:01:09;;;;;;;20.77;11.40;;;2.30;99.90;;;;;;5029103;28;20258;-60
2021/01/08 01:03:35;;;;;;;20.03;10.63;;;2.30;99.90;;;;;;5028987;28;20207;-60
2021/01/08 01:06:01;;;;;;;18.87;10.37;;;2.30;99.90;;;;;;5029498;28;20589;-61
2021/01/08 01:08:28;;;;;;;21.83;10.80;;;2.30;99.90;;;;;;5028620;28;20253;-62
2021/01/08 01:10:55;;;;;;;20.20;11.07;;;2.30;99.90;;;;;;5022780;28;20215;-60
2021/01/08 01:13:21;;;;;;;21.47;11.00;;;2.40;99.90;;;;;;5021004;28;20772;-60
2021/01/08 01:15:48;;;;;;;21.53;11.73;;;2.30;99.90;;;;;;5026584;28;20195;-61
2021/01/08 01:18:14;;;;;;;21.17;11.77;;;2.30;99.90;;;;;;5020597;28;20619;-60
2021/01/08 01:20:41;;;;;;;22.10;11.97;;;2.30;99.90;;;;;;5024600;28;20841;-58
2021/01/08 01:23:08;;;;;;;22.07;12.00;;;2.30;99.90;;;;;;5025477;28;20207;-60
2021/01/08 01:25:34;;;;;;;22.53;11.80;;;2.40;99.90;;;;;;5022594;28;20431;-60
2021/01/08 01:28:01;;;;;;;21.73;11.27;;;2.40;99.90;;;;;;5023287;28;20199;-61
2021/01/08 01:30:29;;;;;;;20.97;10.90;;;2.30;99.90;;;;;;5024774;28;20231;-60
2021/01/08 01:32:55;;;;;;;22.97;12.70;;;2.40;99.90;;;;;;5026102;28;20265;-61
2021/01/08 01:35:21;;;;;;;23.77;12.17;;;2.40;99.90;;;;;;5021491;28;20204;-59
2021/01/08 01:37:47;;;;;;;22.73;12.20;;;2.40;99.90;;;;;;5023932;28;20231;-61
2021/01/08 01:40:14;;;;;;;22.50;12.13;;;2.40;99.90;;;;;;5024387;28;20227;-62
2021/01/08 01:42:40;;;;;;;22.33;11.93;;;2.40;99.90;;;;;;5022132;28;20195;-61
2021/01/08 01:45:11;;;;;;;22.57;12.83;;;2.40;99.90;;;;;;5018696;28;20234;-61
2021/01/08 01:47:38;;;;;;;20.77;11.37;;;2.30;99.90;;;;;;5024539;28;20204;-60
2021/01/08 01:50:06;;;;;;;20.60;11.13;;;2.30;99.90;;;;;;5022603;28;20247;-59
2021/01/08 01:52:32;;;;;;;19.10;11.03;;;2.30;99.90;;;;;;5026149;28;20234;-59
2021/01/08 01:54:58;;;;;;;21.90;11.53;;;2.30;99.90;;;;;;5027209;28;20211;-58
2021/01/08 01:57:25;;;;;;;20.73;11.37;;;2.40;99.90;;;;;;5024523;28;20208;-62
2021/01/08 01:59:51;;;;;;;20.63;11.50;;;2.30;99.90;;;;;;5017499;28;20223;-61
2021/01/08 02:02:23;;;;;;;21.13;12.00;;;2.40;99.90;;;;;;5021188;28;20215;-61
2021/01/08 02:04:52;;;;;;;20.07;10.70;;;2.40;99.90;;;;;;5025489;28;20275;-61
2021/01/08 02:07:19;;;;;;;22.07;11.50;;;2.30;99.90;;;;;;5023587;28;20196;-58
2021/01/08 02:09:47;;;;;;;22.33;11.77;;;2.30;99.90;;;;;;5026056;28;20227;-60
2021/01/08 02:12:14;;;;;;;20.80;11.23;;;2.30;99.90;;;;;;5027288;28;20238;-61
2021/01/08 02:14:44;;;;;;;20.47;10.90;;;2.30;99.90;;;;;;5018778;28;20649;-60
2021/01/08 02:17:14;;;;;;;20.47;10.77;;;2.30;99.90;;;;;;5020264;28;20208;-59
2021/01/08 02:19:46;;;;;;;23.33;11.90;;;2.30;99.90;;;;;;5019453;28;20254;-60
2021/01/08 02:22:18;;;;;;;18.40;10.53;;;2.20;99.90;;;;;;5022454;28;20569;-61
2021/01/08 02:24:47;;;;;;;21.33;11.63;;;2.20;99.90;;;;;;5019693;28;20567;-59
2021/01/08 02:27:14;;;;;;;19.97;10.93;;;2.30;99.90;;;;;;5016615;28;20211;-61
2021/01/08 02:29:41;;;;;;;19.17;10.73;;;2.30;99.90;;;;;;5020098;28;20216;-62
2021/01/08 02:32:08;;;;;;;20.80;11.00;;;2.20;99.90;;;;;;5017745;28;20211;-61
2021/01/08 02:34:35;;;;;;;21.03;11.13;;;2.30;99.90;;;;;;5022060;28;20615;-60
2021/01/08 02:37:02;;;;;;;19.57;10.43;;;2.30;99.90;;;;;;5014809;28;20208;-58
2021/01/08 02:39:29;;;;;;;19.30;11.20;;;2.30;99.90;;;;;;5021146;28;20200;-59
2021/01/08 02:41:56;;;;;;;18.07;9.70;;;2.40;99.90;;;;;;5020840;28;20215;-60
2021/01/08 02:44:24;;;;;;;19.63;10.17;;;2.40;99.90;;;;;;5019743;28;20196;-60
2021/01/08 02:46:50;;;;;;;20.50;10.20;;;2.40;99.90;;;;;;5019979;28;20211;-61
2021/01/08 02:49:17;;;;;;;19.50;10.23;;;2.40;99.90;;;;;;5025655;28;20233;-61
2021/01/08 02:51:43;;;;;;;18.73;10.37;;;2.40;99.90;;;;;;5020710;28;20211;-59
2021/01/08 02:54:12;;;;;;;18.47;9.57;;;2.40;99.90;;;;;;5022834;28;20242;-62
2021/01/08 02:56:43;;;;;;;20.07;10.17;;;2.40;99.90;;;;;;5022253;28;20277;-59
2021/01/08 02:59:10;;;;;;;18.07;9.80;;;2.40;99.90;;;;;;5018369;28;20228;-57
2021/01/08 03:01:39;;;;;;;19.53;10.33;;;2.40;99.90;;;;;;5021789;28;20310;-60
2021/01/08 03:04:06;;;;;;;16.93;9.20;;;2.30;99.90;;;;;;5024047;28;20192;-55
2021/01/08 03:06:33;;;;;;;19.33;9.90;;;2.40;99.90;;;;;;5021977;28;20196;-62
2021/01/08 03:09:00;;;;;;;19.23;9.47;;;2.40;99.90;;;;;;5018860;28;20208;-58
2021/01/08 03:11:27;;;;;;;18.53;9.83;;;2.40;99.90;;;;;;5021018;28;20242;-62
2021/01/08 03:13:54;;;;;;;18.67;9.00;;;2.40;99.90;;;;;;5027510;28;20216;-60
2021/01/08 03:16:21;;;;;;;14.60;8.37;;;2.30;99.90;;;;;;5018230;28;20295;-62
2021/01/08 03:18:48;;;;;;;15.73;8.67;;;2.20;99.90;;;;;;5019473;28;20200;-61
2021/01/08 03:21:15;;;;;;;18.30;8.60;;;2.20;99.90;;;;;;5024099;28;20216;-60
2021/01/08 03:23:41;;;;;;;17.07;8.63;;;2.20;99.90;;;;;;5023088;28;20204;-59
2021/01/08 03:26:07;;;;;;;17.33;8.90;;;2.20;99.90;;;;;;5027104;28;20244;-58
2021/01/08 03:28:33;;;;;;;18.60;9.23;;;2.30;99.90;;;;;;5023720;28;20196;-60
2021/01/08 03:31:00;;;;;;;17.37;8.87;;;2.30;99.90;;;;;;5023024;28;20216;-61
2021/01/08 03:33:26;;;;;;;17.80;9.27;;;2.30;99.90;;;;;;5026160;28;21039;-62
2021/01/08 03:35:53;;;;;;;16.80;8.90;;;2.30;99.90;;;;;;5022170;28;20207;-60
2021/01/08 03:38:20;;;;;;;15.17;8.80;;;2.30;99.90;;;;;;5024239;28;20210;-60
2021/01/08 03:40:46;;;;;;;15.37;8.40;;;2.30;99.90;;;;;;5023412;28;20234;-61
2021/01/08 03:43:12;;;;;;;17.77;9.07;;;2.40;99.90;;;;;;5024506;28;20215;-61
2021/01/08 03:45:39;;;;;;;16.60;8.80;;;2.30;99.90;;;;;;5025882;28;20199;-60
2021/01/08 03:48:06;;;;;;;15.67;8.40;;;2.30;99.90;;;;;;5023397;28;20211;-61
2021/01/08 03:50:32;;;;;;;14.03;7.93;;;2.30;99.90;;;;;;5024599;28;20315;-61
2021/01/08 03:52:59;;;;;;;16.60;8.87;;;2.30;99.90;;;;;;5022772;28;20220;-60
2021/01/08 03:55:26;;;;;;;17.23;9.13;;;2.20;99.90;;;;;;5023138;28;20204;-60
2021/01/08 03:57:52;;;;;;;13.50;7.63;;;2.20;99.90;;;;;;5027202;28;20199;-59
2021/01/08 04:00:19;;;;;;;13.23;7.33;;;2.30;99.90;;;;;;5019950;28;20239;-61
2021/01/08 04:02:45;;;;;;;13.10;6.73;;;2.20;99.90;;;;;;5022245;28;20215;-62
2021/01/08 04:05:12;;;;;;;10.57;6.30;;;2.20;99.90;;;;;;5019655;28;20250;-61
2021/01/08 04:07:39;;;;;;;12.00;6.83;;;2.20;99.90;;;;;;5025730;28;20294;-62
2021/01/08 04:10:08;;;;;;;9.30;5.40;;;2.20;99.90;;;;;;5017773;28;20222;-60
2021/01/08 04:12:34;;;;;;;9.93;5.67;;;2.10;99.90;;;;;;5025980;28;20208;-62
2021/01/08 04:15:00;;;;;;;11.17;5.70;;;2.10;99.90;;;;;;5021386;28;20227;-60
2021/01/08 04:17:26;;;;;;;11.60;6.10;;;2.20;99.90;;;;;;5027162;28;20281;-62
2021/01/08 04:19:52;;;;;;;11.60;5.60;;;2.20;99.90;;;;;;5028899;28;20232;-62
2021/01/08 04:22:19;;;;;;;10.37;5.83;;;2.20;99.90;;;;;;5031733;28;20238;-61
2021/01/08 04:24:45;;;;;;;13.00;5.77;;;2.20;99.90;;;;;;5027924;28;20196;-61
2021/01/08 04:27:12;;;;;;;9.53;5.37;;;2.20;99.90;;;;;;5031464;28;20728;-62
2021/01/08 04:29:38;;;;;;;10.80;5.90;;;2.20;99.90;;;;;;5024569;28;20246;-60
2021/01/08 04:32:05;;;;;;;10.97;6.07;;;2.20;99.90;;;;;;5027822;28;20203;-59
2021/01/08 04:34:31;;;;;;;14.03;6.33;;;2.20;99.90;;;;;;5026310;28;20224;-62
2021/01/08 04:36:57;;;;;;;11.67;5.93;;;2.20;99.90;;;;;;5028871;28;20628;-62
2021/01/08 04:39:24;;;;;;;9.70;5.77;;;2.20;99.90;;;;;;5021517;28;20591;-59
2021/01/08 04:41:51;;;;;;;10.20;5.73;;;2.20;99.90;;;;;;5027515;28;20203;-58
2021/01/08 04:44:19;;;;;;;13.27;6.70;;;2.20;99.90;;;;;;5029949;28;20207;-61
2021/01/08 04:46:47;;;;;;;10.83;5.70;;;2.30;99.90;;;;;;5031127;28;20290;-60
2021/01/08 04:49:14;;;;;;;11.60;6.10;;;2.20;99.90;;;;;;5032412;28;20212;-62
2021/01/08 04:51:41;;;;;;;11.73;6.20;;;2.30;99.90;;;;;;5031186;28;20269;-62
2021/01/08 04:54:07;;;;;;;10.47;6.03;;;2.30;99.90;;;;;;5032222;28;20230;-62
2021/01/08 04:56:39;;;;;;;12.13;6.03;;;2.30;99.90;;;;;;5031716;28;20963;-62
2021/01/08 04:59:05;;;;;;;10.87;6.03;;;2.30;99.90;;;;;;5031590;28;20199;-60
2021/01/08 05:01:34;;;;;;;11.13;6.17;;;2.30;99.90;;;;;;5031550;28;20583;-62
2021/01/08 05:04:00;;;;;;;12.70;6.57;;;2.30;99.90;;;;;;5031699;28;20254;-61
2021/01/08 05:06:27;;;;;;;10.63;5.77;;;2.30;99.90;;;;;;5031323;28;20211;-62
2021/01/08 05:08:53;;;;;;;10.93;6.07;;;2.30;99.90;;;;;;5031182;28;20635;-61
2021/01/08 05:11:20;;;;;;;12.17;6.60;;;2.30;99.90;;;;;;5020785;28;20228;-61
2021/01/08 05:13:52;;;;;;;13.30;6.80;;;2.30;99.90;;;;;;5019941;28;20226;-62
2021/01/08 05:16:21;;;;;;;12.47;6.60;;;2.30;99.90;;;;;;5024500;28;20196;-60
2021/01/08 05:18:48;;;;;;;11.87;6.23;;;2.30;99.90;;;;;;5030285;28;20211;-62
2021/01/08 05:21:15;;;;;;;13.23;5.93;;;2.30;99.90;;;;;;5029026;28;20231;-61
2021/01/08 05:23:42;;;;;;;12.27;6.33;;;2.30;99.90;;;;;;5030399;28;20207;-62
2021/01/08 05:26:12;;;;;;;12.63;6.47;;;2.30;99.90;;;;;;5031120;28;20204;-61
2021/01/08 05:28:39;;;;;;;12.83;6.30;;;2.30;99.90;;;;;;5030312;28;20212;-61
2021/01/08 05:31:06;;;;;;;14.43;7.53;;;2.30;99.90;;;;;;5031348;28;20235;-62
2021/01/08 05:33:34;;;;;;;11.67;6.10;;;2.30;99.90;;;;;;5031372;28;20235;-60
2021/01/08 05:36:01;;;;;;;13.13;6.90;;;2.30;99.90;;;;;;5031153;28;20211;-61
2021/01/08 05:38:29;;;;;;;11.33;5.87;;;2.30;99.90;;;;;;5030999;28;20208;-63
2021/01/08 05:41:02;;;;;;;12.70;6.30;;;2.30;99.90;;;;;;5031406;28;20348;-60
2021/01/08 05:43:30;;;;;;;12.30;6.53;;;2.30;99.90;;;;;;5031146;28;20853;-62
2021/01/08 05:46:08;;;;;;;12.17;6.53;;;2.30;99.90;;;;;;5028468;28;20215;-62
2021/01/08 05:48:36;;;;;;;12.47;6.03;;;2.30;99.90;;;;;;5025103;28;20197;-64
2021/01/08 05:51:05;;;;;;;12.70;6.57;;;2.30;99.90;;;;;;5028208;28;20235;-63
2021/01/08 05:53:32;;;;;;;13.77;6.13;;;2.30;99.90;;;;;;5031180;28;20219;-61
2021/01/08 05:55:58;;;;;;;12.67;6.43;;;2.30;99.90;;;;;;5030810;28;20203;-62
2021/01/08 05:58:26;;;;;;;12.70;6.43;;;2.40;99.90;;;;;;5030666;28;20207;-63
2021/01/08 06:00:56;;;;;;;11.80;6.23;;;2.30;99.90;;;;;;5030694;28;20224;-62
2021/01/08 06:03:23;;;;;;;13.07;6.00;;;2.30;99.90;;;;;;5030946;28;20207;-62
2021/01/08 06:05:54;;;;;;;11.43;6.33;;;2.30;99.90;;;;;;5030450;28;20203;-61
2021/01/08 06:08:23;;;;;;;11.20;5.20;;;2.30;99.90;;;;;;5030994;28;20204;-61
2021/01/08 06:10:52;;;;;;;13.27;7.23;;;2.30;99.90;;;;;;5030782;28;20227;-62
2021/01/08 06:13:21;;;;;;;12.27;6.17;;;2.30;99.90;;;;;;5026160;28;20224;-63
2021/01/08 06:15:48;;;;;;;12.57;6.50;;;2.30;99.90;;;;;;5021884;28;20207;-60
2021/01/08 06:18:15;;;;;;;12.77;6.30;;;2.30;99.90;;;;;;5027496;28;20204;-61
2021/01/08 06:20:41;;;;;;;14.10;6.73;;;2.30;99.90;;;;;;5030621;28;20219;-63
2021/01/08 06:23:08;;;;;;;13.47;6.83;;;2.30;99.90;;;;;;5018258;28;20211;-62
2021/01/08 06:25:37;;;;;;;14.47;6.77;;;2.30;99.90;;;;;;5018674;28;20195;-63
2021/01/08 06:28:06;;;;;;;12.33;6.23;;;2.20;99.90;;;;;;5030613;28;20559;-60
2021/01/08 06:30:35;;;;;;;12.80;6.60;;;2.20;99.90;;;;;;5030318;28;20224;-63
2021/01/08 06:33:04;;;;;;;13.20;7.10;;;2.20;99.90;;;;;;5030998;28;20207;-62
2021/01/08 06:35:33;;;;;;;12.67;7.00;;;2.20;99.90;;;;;;5030403;28;20253;-62
2021/01/08 06:38:01;;;;;;;13.47;6.93;;;2.20;99.90;;;;;;5030366;28;20204;-62
2021/01/08 06:40:41;;;;;;;13.40;6.70;;;2.20;99.90;;;;;;5030307;28;20587;-62
2021/01/08 06:43:17;;;;;;;14.43;7.07;;;2.20;99.90;;;;;;5023661;28;20207;-62
2021/01/08 06:45:52;;;;;;;10.70;5.67;;;2.20;99.90;;;;;;5028895;28;20210;-63
2021/01/08 06:48:23;;;;;;;14.37;7.20;;;2.20;99.90;;;;;;5030042;28;20226;-62
2021/01/08 06:50:53;;;;;;;13.17;6.90;;;2.20;99.90;;;;;;5029816;28;20227;-62
2021/01/08 06:53:25;;;;;;;14.80;7.37;;;2.20;99.90;;;;;;5030480;28;20223;-63
2021/01/08 06:55:54;;;;;;;14.27;7.10;;;2.20;99.90;;;;;;5030305;28;20265;-61
2021/01/08 06:58:21;;;;;;;17.67;8.33;;;2.20;99.90;;;;;;5030623;28;20211;-61
2021/01/08 07:00:51;;;;;;;16.63;7.93;;;2.20;99.90;;;;;;5030153;28;20234;-59
2021/01/08 07:03:21;;;;;;;14.97;7.50;;;2.20;99.90;;;;;;5031095;28;20227;-61
2021/01/08 07:05:49;;;;;;;17.57;7.80;;;2.30;99.90;;;;;;5027422;28;20908;-61
2021/01/08 07:08:16;;;;;;;16.67;7.97;;;2.20;99.90;;;;;;5026906;28;20208;-60
2021/01/08 07:10:52;;;;;;;17.60;8.13;;;2.20;99.90;;;;;;5028197;28;20230;-62
2021/01/08 07:13:28;;;;;;;17.13;7.87;;;2.20;99.90;;;;;;5023219;28;20235;-62
2021/01/08 07:15:54;;;;;;;17.80;8.37;;;2.20;99.90;;;;;;5023734;28;20207;-62
2021/01/08 07:18:26;;;;;;;17.47;8.43;;;2.20;99.90;;;;;;5023562;28;20207;-60
2021/01/08 07:20:53;;;;;;;19.07;9.43;;;2.20;99.90;;;;;;5029883;28;20793;-59
2021/01/08 07:23:25;;;;;;;15.87;7.67;;;2.10;99.90;;;;;;5016454;28;20204;-62
2021/01/08 07:25:55;;;;;;;15.73;7.33;;;2.20;99.90;;;;;;5030431;28;20195;-60
2021/01/08 07:28:22;;;;;;;15.97;7.47;;;2.10;99.90;;;;;;5030094;28;20199;-59
2021/01/08 07:31:07;;;;;;;15.40;7.60;;;2.10;99.90;;;;;;5024260;28;20216;-58
2021/01/08 07:33:33;;;;;;;14.83;7.23;;;2.10;99.90;;;;;;5033329;28;20246;-60
2021/01/08 07:36:19;;;;;;;12.80;6.53;;;2.10;99.90;;;;;;5032520;28;20200;-61
2021/01/08 07:38:45;;;;;;;14.43;7.17;;;2.10;99.90;;;;;;5033610;28;20230;-59
2021/01/08 07:41:12;;;;;;;13.17;6.83;;;2.10;99.90;;;;;;5033275;28;20220;-62
2021/01/08 07:43:38;;;;;;;15.30;7.60;;;2.10;99.90;;;;;;5033391;28;20238;-61
2021/01/08 07:46:05;;;;;;;14.57;7.50;;;2.10;99.90;;;;;;5033795;28;20212;-60
2021/01/08 07:48:34;;;;;;;16.53;9.03;;;2.10;99.90;;;;;;5033221;28;20246;-58
2021/01/08 07:51:02;;;;;;;14.80;7.53;;;2.10;99.90;;;;;;5033037;28;20311;-61
2021/01/08 07:53:45;;;;;;;14.27;7.23;;;2.10;99.90;;;;;;5024445;28;20365;-60
2021/01/08 07:56:14;;;;;;;14.33;6.70;;;2.10;99.90;;;;;;5028683;28;20600;-60
2021/01/08 07:58:41;;;;;;;13.73;6.33;;;2.10;99.90;;;;;;5031902;28;20204;-60
2021/01/08 08:01:09;;;;;;;12.97;6.80;;;2.10;99.90;;;;;;5031741;28;20227;-61
2021/01/08 08:03:36;;;;;;;11.97;6.70;;;2.10;99.90;;;;;;5023537;28;20207;-61
2021/01/08 08:06:03;;;;;;;11.57;6.87;;;2.00;99.90;;;;;;5032900;28;20231;-60
2021/01/08 08:08:30;;;;;;;12.73;7.20;;;2.00;99.90;;;;;;5032925;28;20200;-60
2021/01/08 08:11:10;;;;;;;15.00;6.80;;;2.00;99.90;;;;;;5032613;28;20232;-59
2021/01/08 08:13:37;;;;;;;14.73;7.70;;;2.00;99.90;;;;;;5033058;28;20220;-57
2021/01/08 08:16:05;;;;;;;12.97;7.57;;;2.00;99.90;;;;;;5032824;28;20203;-62
2021/01/08 08:18:31;;;;;;;15.37;7.93;;;2.00;99.90;;;;;;5032574;28;20333;-59
2021/01/08 08:21:09;;;;;;;11.97;7.10;;;2.00;99.90;;;;;;5027911;28;20223;-61
2021/01/08 08:23:35;;;;;;;13.50;7.53;;;2.00;99.90;;;;;;5028125;28;20203;-56
2021/01/08 08:26:02;;;;;;;10.83;6.30;;;2.00;99.90;;;;;;5031566;28;20204;-59
2021/01/08 08:28:28;;;;;;;11.70;6.33;;;2.00;99.90;;;;;;5032555;28;20221;-58
2021/01/08 08:30:56;;;;;;;13.10;7.30;;;2.00;99.90;;;;;;5031896;28;20239;-60
2021/01/08 08:33:23;;;;;;;12.20;7.17;;;2.00;99.90;;;;;;5032618;28;20243;-60
2021/01/08 08:35:49;;;;;;;13.77;7.27;;;2.00;99.90;;;;;;5032341;28;20215;-58
2021/01/08 08:38:15;;;;;;;14.67;8.07;;;2.00;99.90;;;;;;5032617;28;20200;-58
2021/01/08 08:40:42;;;;;;;15.20;9.13;;;2.10;99.90;;;;;;5031275;28;20659;-59
2021/01/08 08:43:08;;;;;;;17.10;9.07;;;2.10;99.90;;;;;;5032630;28;20208;-59
2021/01/08 08:45:35;;;;;;;12.93;7.63;;;2.10;99.90;;;;;;5020778;28;20201;-57
2021/01/08 08:48:05;;;;;;;16.73;8.23;;;2.10;99.90;;;;;;5031145;28;20226;-56
2021/01/08 08:50:33;;;;;;;23.50;12.47;;;2.00;99.90;;;;;;5025478;28;20713;-57
2021/01/08 08:53:09;;;;;;;22.10;10.90;;;2.10;99.90;;;;;;5032702;28;20211;-58
2021/01/08 08:55:35;;;;;;;17.53;9.67;;;2.10;99.90;;;;;;5032026;28;20195;-55
2021/01/08 08:58:07;;;;;;;13.73;7.87;;;2.00;99.90;;;;;;5032514;28;20209;-59
2021/01/08 09:00:34;;;;;;;12.10;6.63;;;2.00;99.90;;;;;;5031517;28;20284;-57
2021/01/08 09:03:01;;;;;;;13.20;6.77;;;2.00;99.90;;;;;;5032487;28;20204;-60
2021/01/08 09:05:32;;;;;;;18.20;10.30;;;2.00;99.90;;;;;;5031787;28;20230;-58
2021/01/08 09:08:06;;;;;;;12.83;7.13;;;2.00;99.90;;;;;;5031908;28;20948;-58
2021/01/08 09:10:35;;;;;;;11.77;6.03;;;2.00;99.90;;;;;;5031551;28;20235;-55
2021/01/08 09:13:10;;;;;;;11.33;6.30;;;2.00;99.90;;;;;;5022705;28;20613;-56
2021/01/08 09:15:45;;;;;;;16.13;7.53;;;1.90;99.90;;;;;;5022107;28;20196;-55
2021/01/08 09:18:19;;;;;;;28.43;15.03;;;1.90;99.90;;;;;;5028549;28;20229;-59
2021/01/08 09:20:54;;;;;;;27.80;13.07;;;1.90;99.90;;;;;;5030141;28;20216;-60
2021/01/08 09:23:21;;;;;;;20.33;10.40;;;2.00;99.90;;;;;;5029625;28;20203;-58
2021/01/08 09:25:48;;;;;;;21.33;9.87;;;2.00;99.90;;;;;;5031562;28;20203;-59
2021/01/08 09:28:17;;;;;;;24.00;10.90;;;2.00;99.90;;;;;;5024356;28;20208;-57
2021/01/08 09:30:50;;;;;;;24.77;10.33;;;2.00;99.90;;;;;;5028459;28;20219;-60
2021/01/08 09:33:17;;;;;;;21.70;9.00;;;2.10;99.90;;;;;;5027222;28;20212;-59
2021/01/08 09:35:44;;;;;;;23.50;10.30;;;2.10;99.90;;;;;;5030637;28;20214;-58
2021/01/08 09:38:14;;;;;;;19.37;8.70;;;2.10;99.90;;;;;;5030172;28;20207;-59
2021/01/08 09:40:41;;;;;;;28.33;11.63;;;2.10;99.90;;;;;;5028967;28;20224;-59
2021/01/08 09:43:16;;;;;;;18.63;9.00;;;2.00;99.90;;;;;;5029713;28;20845;-58
2021/01/08 09:45:42;;;;;;;15.53;6.80;;;2.10;99.90;;;;;;5029156;28;20627;-57
2021/01/08 09:48:21;;;;;;;11.77;5.97;;;2.20;99.90;;;;;;5029677;28;20208;-60
2021/01/08 09:50:47;;;;;;;12.23;6.77;;;2.20;99.90;;;;;;5029270;28;20231;-57
2021/01/08 09:53:15;;;;;;;14.23;7.47;;;2.20;99.90;;;;;;5030498;28;20586;-54
2021/01/08 09:55:41;;;;;;;14.03;7.73;;;2.20;99.90;;;;;;5030487;28;20238;-53
2021/01/08 09:58:08;;;;;;;14.23;7.63;;;2.30;99.90;;;;;;5030203;28;20217;-58
2021/01/08 10:00:36;;;;;;;13.37;7.33;;;2.40;99.90;;;;;;5028503;28;20231;-59
2021/01/08 10:03:03;;;;;;;13.00;6.67;;;2.40;99.90;;;;;;5030360;28;20211;-59
2021/01/08 10:05:31;;;;;;;9.90;5.80;;;2.40;99.90;;;;;;5031249;28;20287;-59
2021/01/08 10:07:59;;;;;;;11.00;5.50;;;2.40;99.90;;;;;;5029695;28;20253;-58
2021/01/08 10:10:41;;;;;;;9.97;5.43;;;2.40;99.90;;;;;;5030443;28;20234;-59
2021/01/08 10:13:15;;;;;;;9.03;5.53;;;2.50;99.90;;;;;;5030058;28;20204;-59
2021/01/08 10:15:43;;;;;;;10.03;5.30;;;2.50;99.90;;;;;;5030294;28;20207;-60
2021/01/08 10:18:10;;;;;;;9.00;5.17;;;2.40;99.90;;;;;;5029772;28;20624;-60
2021/01/08 10:20:43;;;;;;;8.57;5.33;;;2.40;99.90;;;;;;5030099;28;20235;-60
2021/01/08 10:23:14;;;;;;;10.07;5.63;;;2.30;99.90;;;;;;5029452;28;20211;-59
2021/01/08 10:25:42;;;;;;;8.33;4.80;;;2.40;99.90;;;;;;5029252;28;20290;-60
2021/01/08 10:28:17;;;;;;;10.00;4.70;;;2.50;99.90;;;;;;5029895;28;20881;-59
2021/01/08 10:30:45;;;;;;;7.73;4.87;;;2.50;99.90;;;;;;5027447;28;20242;-59
2021/01/08 10:33:11;;;;;;;10.03;5.27;;;2.50;99.90;;;;;;5018938;28;20203;-61
2021/01/08 10:35:38;;;;;;;14.53;6.20;;;2.40;99.90;;;;;;5022880;28;20228;-57
2021/01/08 10:38:04;;;;;;;14.43;6.27;;;2.40;99.90;;;;;;5023955;28;20214;-60
2021/01/08 10:40:31;;;;;;;10.07;5.50;;;2.40;99.90;;;;;;5025131;28;20234;-59
2021/01/08 10:42:58;;;;;;;10.97;5.93;;;2.40;99.90;;;;;;5025566;28;20211;-61
2021/01/08 10:45:24;;;;;;;13.30;6.50;;;2.50;99.90;;;;;;5026181;28;20207;-56
2021/01/08 10:47:51;;;;;;;11.77;5.90;;;2.40;99.90;;;;;;5024963;28;20206;-61
2021/01/08 10:50:17;;;;;;;10.13;5.63;;;2.50;99.90;;;;;;5025807;28;20231;-61
2021/01/08 10:52:44;;;;;;;12.60;6.07;;;2.60;99.90;;;;;;5025498;28;20258;-61
2021/01/08 10:55:11;;;;;;;11.87;5.93;;;2.60;99.90;;;;;;5025609;28;20269;-61
2021/01/08 10:57:38;;;;;;;10.87;5.57;;;2.50;99.90;;;;;;5025579;28;20211;-60
2021/01/08 11:00:08;;;;;;;9.67;5.37;;;2.60;99.90;;;;;;5025274;28;20223;-59
2021/01/08 11:02:35;;;;;;;8.57;5.07;;;2.70;99.90;;;;;;5024775;28;20599;-61
2021/01/08 11:05:02;;;;;;;8.80;5.30;;;2.70;99.90;;;;;;5027724;28;20196;-60
2021/01/08 11:07:28;;;;;;;8.43;5.07;;;2.90;99.90;;;;;;5029317;28;20203;-60
2021/01/08 11:09:54;;;;;;;11.07;6.27;;;2.90;99.90;;;;;;5029403;28;20230;-62
2021/01/08 11:12:20;;;;;;;8.93;5.60;;;2.80;99.90;;;;;;5029753;28;20602;-61
2021/01/08 11:14:47;;;;;;;10.97;5.83;;;2.80;99.90;;;;;;5029422;28;20215;-62
2021/01/08 11:17:14;;;;;;;9.73;6.10;;;2.90;99.90;;;;;;5029260;28;20204;-62
2021/01/08 11:19:40;;;;;;;9.67;6.10;;;2.90;99.90;;;;;;5028674;28;20227;-61
2021/01/08 11:22:07;;;;;;;11.43;6.33;;;3.00;99.90;;;;;;5028732;28;20274;-61
2021/01/08 11:24:34;;;;;;;8.13;5.30;;;3.00;99.90;;;;;;5029027;28;20195;-61
2021/01/08 11:27:00;;;;;;;10.50;6.23;;;3.00;99.90;;;;;;5026675;28;20239;-61
2021/01/08 11:29:26;;;;;;;9.43;5.90;;;3.00;99.90;;;;;;5025500;28;20600;-60
2021/01/08 11:31:52;;;;;;;11.77;5.90;;;3.00;99.90;;;;;;5028745;28;20690;-60
2021/01/08 11:34:19;;;;;;;8.93;5.13;;;2.80;99.90;;;;;;5028326;28;20230;-59
2021/01/08 11:36:46;;;;;;;13.23;6.43;;;2.80;99.90;;;;;;5026954;28;20203;-62
2021/01/08 11:39:14;;;;;;;11.97;7.03;;;2.90;99.90;;;;;;5027613;28;20214;-58
2021/01/08 11:41:41;;;;;;;14.33;6.90;;;3.00;99.90;;;;;;5028860;28;20224;-60
2021/01/08 11:44:08;;;;;;;10.87;6.37;;;3.10;99.90;;;;;;5027946;28;20282;-61
2021/01/08 11:46:34;;;;;;;10.27;6.40;;;3.20;99.90;;;;;;5025747;28;20204;-60
2021/01/08 11:49:01;;;;;;;13.37;7.53;;;3.20;99.90;;;;;;5028181;28;20215;-62
2021/01/08 11:51:28;;;;;;;10.50;6.67;;;3.30;99.90;;;;;;5025610;28;20245;-62
2021/01/08 11:53:54;;;;;;;10.73;6.50;;;3.20;99.90;;;;;;5027538;28;20225;-57
2021/01/08 11:56:27;;;;;;;10.73;6.90;;;3.20;99.90;;;;;;5027490;28;20311;-61
2021/01/08 11:58:54;;;;;;;11.20;6.50;;;3.20;99.90;;;;;;5028277;28;20200;-57
2021/01/08 12:01:24;;;;;;;11.47;7.27;;;3.10;99.90;;;;;;5024334;28;20828;-59
2021/01/08 12:03:50;;;;;;;13.10;7.30;;;3.20;99.90;;;;;;5023605;28;20686;-59
2021/01/08 12:06:17;;;;;;;12.67;8.03;;;3.10;99.90;;;;;;5027298;28;20622;-58
2021/01/08 12:08:44;;;;;;;15.93;8.67;;;3.10;99.90;;;;;;5023626;28;20215;-61
2021/01/08 12:11:15;;;;;;;13.97;7.83;;;3.10;99.90;;;;;;5024262;28;20243;-61
2021/01/08 12:13:43;;;;;;;16.50;8.77;;;2.90;99.90;;;;;;5021577;28;20214;-60
2021/01/08 12:16:09;;;;;;;16.13;8.33;;;2.90;99.90;;;;;;5024542;28;20211;-61
2021/01/08 12:18:36;;;;;;;15.83;8.73;;;2.90;99.90;;;;;;5024739;28;20250;-61
2021/01/08 12:21:02;;;;;;;15.57;8.67;;;2.90;99.90;;;;;;5021754;28;20706;-61
2021/01/08 12:23:28;;;;;;;22.83;13.00;;;2.80;99.90;;;;;;5027902;28;20307;-61
2021/01/08 12:25:55;;;;;;;16.03;8.90;;;2.80;99.90;;;;;;5025138;28;20208;-61
2021/01/08 12:28:21;;;;;;;16.17;10.53;;;2.80;99.90;;;;;;5023226;28;20212;-60
2021/01/08 12:30:48;;;;;;;19.17;11.13;;;2.80;99.90;;;;;;5025361;28;20223;-60
2021/01/08 12:33:14;;;;;;;18.97;11.20;;;2.80;99.90;;;;;;5024670;28;20261;-60
2021/01/08 12:35:41;;;;;;;18.20;9.93;;;2.80;99.90;;;;;;5022772;28;20223;-60
2021/01/08 12:38:07;;;;;;;18.17;9.97;;;2.80;99.90;;;;;;5026288;28;20294;-61
2021/01/08 12:40:33;;;;;;;20.10;10.30;;;2.80;99.90;;;;;;5024302;28;20858;-61
2021/01/08 12:43:00;;;;;;;24.47;13.27;;;2.80;99.90;;;;;;5020017;28;20204;-61
2021/01/08 12:45:27;;;;;;;20.10;10.93;;;2.80;99.90;;;;;;5018413;28;20238;-61
2021/01/08 12:47:53;;;;;;;18.23;9.63;;;2.80;99.90;;;;;;5025471;28;20204;-61
2021/01/08 12:50:20;;;;;;;18.87;10.07;;;2.70;99.90;;;;;;5024007;28;20286;-62